Connexion S'enregistrer

Connexion à votre compte

Identifiant
Mot de passe
Maintenir la connexion active sur ce site

Créer un compte

Pour valider ce formulaire, vous devez remplir tous les champs.
Nom
Identifiant
Mot de passe
Répétez le mot de passe
Adresse e-mail
Répétez l'adresse e-mail

METAR/TAF de Chambéry

[source: ADDS]
METAR
LFLB 170630Z AUTO 15010G26KT 110V200 9999 -RA FEW034 BKN041 OVC050 07/01 Q1012 TEMPO SHRA =
TAF
TAF LFLB 170500Z 1706/1806 36008KT 9999 BKN050 TEMPO 1706/1713 36015G25KT 5000 SHRA BKN030 PROB40 TEMPO 1706/1713 16015G25KT =
SR / SS: 07:11 / 16:21 UTC (Lever/Coucher du soleil le 2018-01-17)

 

Webcam de l'Aéroclub - Parking Lima et SW (réactualisation : 5min)

Cliquer ici pour une animation sur les 3 dernières heures / Cliquer sur l'image pour l'agrandir dans une nouvelle fenêtre

 

Webcam de l'Aéroclub - Manche à air et WA (réactualisation : 5min)

Cliquer ici pour une animation sur les 3 dernières heures / Cliquer sur l'image pour l'agrandir dans une nouvelle fenêtre

 

JSN Boot template designed by JoomlaShine.com